createdAt,value
2022-09-18T00:00:59.028Z,9.80
2022-09-18T00:06:19.896Z,9.73
2022-09-18T00:11:28.605Z,9.66
2022-09-18T00:16:39.525Z,9.58
2022-09-18T00:21:49.098Z,9.51
2022-09-18T00:26:56.016Z,9.46
2022-09-18T00:32:01.580Z,9.40
2022-09-18T00:37:08.890Z,9.35
2022-09-18T00:42:24.070Z,9.31
2022-09-18T00:47:34.034Z,9.25
2022-09-18T00:52:52.913Z,9.22
2022-09-18T00:58:09.987Z,9.16
2022-09-18T01:03:17.187Z,9.11
2022-09-18T01:08:41.807Z,9.06
2022-09-18T01:14:01.339Z,9.02
2022-09-18T01:19:27.356Z,9.01
2022-09-18T01:24:47.063Z,8.98
2022-09-18T01:30:02.070Z,8.96
2022-09-18T01:35:41.526Z,8.93
2022-09-18T01:41:05.086Z,8.92
2022-09-18T01:46:20.151Z,8.92
2022-09-18T01:51:33.009Z,8.90
2022-09-18T01:56:45.408Z,8.89
2022-09-18T02:01:56.023Z,8.86
2022-09-18T02:07:14.569Z,8.85
2022-09-18T02:12:25.576Z,8.83
2022-09-18T02:17:37.262Z,8.80
2022-09-18T02:22:48.934Z,8.76
2022-09-18T02:27:59.997Z,8.74
2022-09-18T02:33:26.168Z,8.71
2022-09-18T02:44:21.045Z,8.66
2022-09-18T02:49:38.078Z,8.60
2022-09-18T02:54:50.714Z,8.58
2022-09-18T03:00:03.348Z,8.52
2022-09-18T03:05:11.651Z,8.47
2022-09-18T03:10:18.870Z,8.45
2022-09-18T03:15:27.376Z,8.41
2022-09-18T03:20:34.654Z,8.39
2022-09-18T03:25:43.540Z,8.38
2022-09-18T03:30:53.496Z,8.36
2022-09-18T03:36:00.462Z,8.34
2022-09-18T03:41:07.548Z,8.32
2022-09-18T03:46:15.704Z,8.31
2022-09-18T03:51:23.108Z,8.28
2022-09-18T03:56:31.541Z,8.26
2022-09-18T04:01:38.477Z,8.24
2022-09-18T04:06:43.833Z,8.22
2022-09-18T04:11:53.649Z,8.18
2022-09-18T04:17:00.756Z,8.17
2022-09-18T04:22:08.061Z,8.14
2022-09-18T04:27:13.622Z,8.11
2022-09-18T04:32:20.771Z,8.09
2022-09-18T04:37:30.791Z,8.06
2022-09-18T04:42:37.855Z,8.04
2022-09-18T04:47:46.891Z,8.01
2022-09-18T04:52:53.715Z,7.98
2022-09-18T04:58:00.575Z,7.97
2022-09-18T05:03:09.850Z,7.94
2022-09-18T05:08:17.498Z,7.91
2022-09-18T05:13:24.729Z,7.92
2022-09-18T05:18:35.136Z,7.90
2022-09-18T05:23:42.236Z,7.88
2022-09-18T05:28:51.631Z,7.87
2022-09-18T05:33:58.917Z,7.85
2022-09-18T05:39:06.635Z,7.84
2022-09-18T05:44:12.059Z,7.84
2022-09-18T05:49:19.160Z,7.83
2022-09-18T05:54:26.422Z,7.83
2022-09-18T05:59:33.437Z,7.85
2022-09-18T06:04:39.108Z,7.87
2022-09-18T06:09:46.104Z,7.90
2022-09-18T06:14:53.100Z,7.96
2022-09-18T06:20:00.359Z,8.06
2022-09-18T06:25:09.361Z,8.17
2022-09-18T06:30:17.176Z,8.28
2022-09-18T06:35:24.981Z,8.33
2022-09-18T06:40:33.330Z,8.35
2022-09-18T06:45:40.242Z,8.39
2022-09-18T06:53:30.414Z,8.46
2022-09-18T06:58:37.559Z,8.52
2022-09-18T07:03:42.909Z,8.63
2022-09-18T07:08:52.917Z,8.72
2022-09-18T07:13:59.832Z,8.82
2022-09-18T07:19:08.976Z,8.92
2022-09-18T07:24:18.324Z,9.00
2022-09-18T07:29:26.955Z,9.07
2022-09-18T07:34:33.893Z,9.09
2022-09-18T07:39:39.620Z,9.09
2022-09-18T07:44:46.721Z,9.12
2022-09-18T07:49:53.822Z,9.23
2022-09-18T07:55:00.960Z,9.30
2022-09-18T08:00:11.375Z,9.33
2022-09-18T08:05:18.851Z,9.33
2022-09-18T08:10:26.606Z,9.37
2022-09-18T08:15:34.313Z,9.42
2022-09-18T08:20:41.931Z,9.43
2022-09-18T08:25:49.953Z,9.40
2022-09-18T08:30:58.279Z,9.42
2022-09-18T08:36:05.816Z,9.50
2022-09-18T08:41:25.515Z,9.63
2022-09-18T08:46:39.371Z,9.78
2022-09-18T08:51:53.505Z,9.90
2022-09-18T08:57:06.526Z,9.92
2022-09-18T09:02:46.654Z,9.89
2022-09-18T09:08:17.514Z,9.91
2022-09-18T09:13:50.856Z,9.99
2022-09-18T09:19:02.375Z,10.08
2022-09-18T09:24:22.222Z,10.12
2022-09-18T09:29:32.786Z,10.18
2022-09-18T09:34:45.713Z,10.28
2022-09-18T09:39:58.962Z,10.22
2022-09-18T09:45:15.889Z,10.21
2022-09-18T09:50:38.532Z,10.42
2022-09-18T09:55:56.765Z,10.52
2022-09-18T10:01:11.932Z,10.58
2022-09-18T10:06:35.945Z,10.64
2022-09-18T10:11:48.711Z,10.60
2022-09-18T10:16:57.959Z,10.59
2022-09-18T10:22:08.801Z,10.64
2022-09-18T10:27:17.518Z,10.74
2022-09-18T10:32:39.294Z,10.77
2022-09-18T10:37:46.189Z,10.77
2022-09-18T10:42:56.144Z,10.69
2022-09-18T10:48:15.936Z,10.50
2022-09-18T10:53:32.216Z,10.35
2022-09-18T10:58:39.620Z,10.32
2022-09-18T11:03:50.105Z,10.48
2022-09-18T11:09:00.714Z,10.75
2022-09-18T11:14:17.985Z,11.00
2022-09-18T11:19:28.645Z,11.18
2022-09-18T11:24:37.579Z,11.08
2022-09-18T11:29:44.694Z,10.90
2022-09-18T11:34:55.044Z,10.75
2022-09-18T11:40:26.585Z,10.37
2022-09-18T11:45:54.041Z,9.84
2022-09-18T11:51:04.630Z,9.58
2022-09-18T11:56:16.203Z,9.49
2022-09-18T12:01:32.189Z,9.52
2022-09-18T12:06:52.470Z,9.65
2022-09-18T12:12:05.429Z,9.76
2022-09-18T12:17:19.359Z,9.83
2022-09-18T12:22:30.635Z,9.84
2022-09-18T12:27:42.470Z,9.84
2022-09-18T12:33:07.556Z,9.82
2022-09-18T12:38:28.514Z,9.83
2022-09-18T12:43:56.905Z,9.81
2022-09-18T12:49:32.808Z,9.81
2022-09-18T12:54:53.416Z,9.85
2022-09-18T13:00:07.397Z,9.96
2022-09-18T13:05:19.757Z,10.03
2022-09-18T13:10:31.192Z,10.00
2022-09-18T13:15:45.070Z,9.86
2022-09-18T13:20:54.314Z,9.71
2022-09-18T13:26:03.210Z,9.54
2022-09-18T13:36:28.587Z,9.41
2022-09-18T13:41:47.506Z,9.42
2022-09-18T13:46:57.442Z,9.48
2022-09-18T13:52:29.980Z,9.50
2022-09-18T13:57:37.886Z,9.47
2022-09-18T14:02:44.777Z,9.47
2022-09-18T14:08:36.216Z,9.46
2022-09-18T14:13:52.045Z,9.42
2022-09-18T14:19:05.685Z,9.41
2022-09-18T14:24:56.584Z,9.43
2022-09-18T14:30:15.401Z,9.50
2022-09-18T14:35:29.775Z,9.51
2022-09-18T14:40:44.093Z,9.49
2022-09-18T14:45:51.488Z,9.48
2022-09-18T14:51:17.811Z,9.42
2022-09-18T14:56:29.630Z,9.35
2022-09-18T15:01:39.015Z,9.31
2022-09-18T15:06:51.139Z,9.27
2022-09-18T15:12:02.597Z,9.23
2022-09-18T15:17:20.685Z,9.19
2022-09-18T15:22:28.745Z,9.17
2022-09-18T15:27:36.223Z,9.20
2022-09-18T15:32:47.724Z,9.21
2022-09-18T15:38:02.544Z,9.25
2022-09-18T15:43:41.306Z,9.28
2022-09-18T15:48:49.395Z,9.30
2022-09-18T15:54:07.775Z,9.31
2022-09-18T15:59:26.417Z,9.30
2022-09-18T16:04:35.143Z,9.29
2022-09-18T16:09:45.320Z,9.30
2022-09-18T16:15:03.143Z,9.29
2022-09-18T16:20:36.611Z,9.28
2022-09-18T16:25:45.443Z,9.27
2022-09-18T16:30:56.079Z,9.25
2022-09-18T16:36:08.271Z,9.24
2022-09-18T16:41:15.197Z,9.24
2022-09-18T16:46:24.084Z,9.19
2022-09-18T16:51:33.697Z,9.11
2022-09-18T16:56:44.840Z,9.04
2022-09-18T17:02:03.289Z,9.00
2022-09-18T17:07:11.472Z,8.96
2022-09-18T17:12:18.695Z,8.92
2022-09-18T17:17:25.879Z,8.88
2022-09-18T17:22:33.886Z,8.83
2022-09-18T17:27:43.716Z,8.74
2022-09-18T17:32:51.625Z,8.67
2022-09-18T17:38:01.062Z,8.63
2022-09-18T17:43:08.326Z,8.60
2022-09-18T17:48:16.286Z,8.59
2022-09-18T17:53:23.889Z,8.60
2022-09-18T17:58:32.446Z,8.61
2022-09-18T18:03:39.880Z,8.64
2022-09-18T18:08:47.445Z,8.65
2022-09-18T18:13:58.044Z,8.62
2022-09-18T18:19:12.401Z,8.62
2022-09-18T18:24:20.906Z,8.63
2022-09-18T18:29:28.304Z,8.64
2022-09-18T18:34:39.155Z,8.60
2022-09-18T18:39:47.190Z,8.60
2022-09-18T18:44:55.514Z,8.57
2022-09-18T18:50:03.867Z,8.56
2022-09-18T18:55:12.198Z,8.54
2022-09-18T19:00:27.661Z,8.51
2022-09-18T19:05:35.489Z,8.44
2022-09-18T19:10:43.625Z,8.39
2022-09-18T19:15:55.562Z,8.36
2022-09-18T19:21:03.929Z,8.33
2022-09-18T19:26:16.452Z,8.31
2022-09-18T19:31:27.141Z,8.36
2022-09-18T19:36:40.297Z,8.45
2022-09-18T19:41:52.704Z,8.51
2022-09-18T19:47:03.719Z,8.53
2022-09-18T19:52:18.119Z,8.48
2022-09-18T19:57:27.725Z,8.34
2022-09-18T20:02:34.912Z,8.27
2022-09-18T20:07:42.528Z,8.27
2022-09-18T20:12:52.728Z,8.29
2022-09-18T20:18:03.813Z,8.28
2022-09-18T20:23:14.299Z,8.27
2022-09-18T20:28:24.269Z,8.28
2022-09-18T20:33:31.827Z,8.26
2022-09-18T20:38:41.038Z,8.24
2022-09-18T20:43:53.418Z,8.19
2022-09-18T20:49:03.533Z,8.09
2022-09-18T20:54:11.799Z,8.03
2022-09-18T20:59:21.190Z,7.96
2022-09-18T21:04:30.854Z,7.94
2022-09-18T21:09:37.671Z,7.97
2022-09-18T21:14:44.806Z,7.98
2022-09-18T21:19:50.484Z,7.90
2022-09-18T21:25:03.308Z,7.85
2022-09-18T21:30:15.560Z,7.79
2022-09-18T21:35:23.727Z,7.65
2022-09-18T21:40:32.031Z,7.54
2022-09-18T21:45:40.618Z,7.42
2022-09-18T21:50:51.789Z,7.28
2022-09-18T21:56:12.202Z,7.11
2022-09-18T22:01:28.410Z,6.99
2022-09-18T22:06:39.813Z,6.95
2022-09-18T22:11:48.042Z,6.89
2022-09-18T22:16:57.682Z,6.83
2022-09-18T22:22:05.191Z,6.87
2022-09-18T22:27:15.269Z,6.83
2022-09-18T22:32:21.128Z,6.80
2022-09-18T22:43:15.870Z,6.81
2022-09-18T22:48:22.738Z,6.80
2022-09-18T22:53:32.503Z,6.82
2022-09-18T22:58:42.956Z,6.91
2022-09-18T23:03:51.232Z,7.05
2022-09-18T23:18:56.241Z,7.46
2022-09-18T23:24:08.910Z,7.46
2022-09-18T23:29:20.676Z,7.46
2022-09-18T23:34:30.618Z,7.47
2022-09-18T23:39:37.645Z,7.56
2022-09-18T23:44:45.781Z,7.60
2022-09-18T23:49:55.942Z,7.60
2022-09-18T23:55:08.567Z,7.59
